Time;durP1;ratioP1;P1;durP2;ratioP2;P2;SDS_P1;SDS_P2;PMS_P1;PMS_P2;Temp;Humidity;BMP_temperature;BMP_pressure;BME280_temperature;BME280_humidity;BME280_pressure;Samples;Min_cycle;Max_cycle;Signal;HPM_P1;HPM_P2
2022/11/23 00:00:56;;;;;;;21.40;12.20;;;;;;;;;;5006619;28;20042;-78
2022/11/23 00:03:22;;;;;;;21.92;12.60;;;;;;;;;;5005368;28;20038;-78
2022/11/23 00:05:48;;;;;;;23.92;13.30;;;;;;;;;;5008086;28;20049;-78
2022/11/23 00:08:14;;;;;;;23.40;13.82;;;;;;;;;;5001846;28;20440;-79
2022/11/23 00:10:40;;;;;;;24.38;13.07;;;;;;;;;;5007015;28;20053;-78
2022/11/23 00:13:06;;;;;;;22.23;13.25;;;;;;;;;;5004512;28;20491;-79
2022/11/23 00:15:32;;;;;;;25.88;15.38;;;;;;;;;;5004183;28;20495;-78
2022/11/23 00:17:59;;;;;;;24.75;14.38;;;;;;;;;;5005538;28;20128;-78
2022/11/23 00:20:25;;;;;;;29.67;17.40;;;;;;;;;;5005351;28;20030;-80
2022/11/23 00:22:52;;;;;;;25.52;15.13;;;;;;;;;;5007275;28;20050;-79
2022/11/23 00:25:18;;;;;;;20.58;13.18;;;;;;;;;;5001798;28;20053;-79
2022/11/23 00:27:44;;;;;;;21.70;13.10;;;;;;;;;;4985087;28;20100;-79
2022/11/23 00:30:10;;;;;;;22.70;12.10;;;;;;;;;;4985083;28;20053;-79
2022/11/23 00:32:37;;;;;;;21.77;12.93;;;;;;;;;;4985004;28;20459;-79
2022/11/23 00:35:07;;;;;;;23.48;13.13;;;;;;;;;;4986513;28;20034;-79
2022/11/23 00:37:32;;;;;;;22.40;11.68;;;;;;;;;;4987163;28;20475;-79
2022/11/23 00:39:58;;;;;;;16.60;9.73;;;;;;;;;;4988946;28;20500;-78
2022/11/23 00:42:24;;;;;;;18.20;9.23;;;;;;;;;;4973171;28;20026;-79
2022/11/23 00:44:50;;;;;;;16.85;8.63;;;;;;;;;;4990924;28;20451;-79
2022/11/23 00:47:16;;;;;;;16.05;8.90;;;;;;;;;;4969682;28;20035;-78
2022/11/23 00:49:44;;;;;;;14.68;8.68;;;;;;;;;;4968350;28;20173;-78
2022/11/23 00:52:11;;;;;;;16.00;8.50;;;;;;;;;;4988656;28;20031;-78
2022/11/23 00:54:37;;;;;;;15.27;8.85;;;;;;;;;;5002542;28;20495;-79
2022/11/23 00:57:05;;;;;;;12.65;8.00;;;;;;;;;;4992760;28;20065;-78
2022/11/23 00:59:32;;;;;;;13.13;7.65;;;;;;;;;;4987279;28;20026;-77
2022/11/23 01:01:59;;;;;;;15.23;7.63;;;;;;;;;;4972730;28;20080;-79
2022/11/23 01:04:26;;;;;;;14.05;8.38;;;;;;;;;;5001134;28;20035;-79
2022/11/23 01:06:56;;;;;;;11.55;7.40;;;;;;;;;;4973566;28;20030;-79
2022/11/23 01:09:47;;;;;;;11.77;6.70;;;;;;;;;;4985978;28;20041;-79
2022/11/23 01:12:13;;;;;;;13.45;6.70;;;;;;;;;;4982758;28;20038;-79
2022/11/23 01:14:39;;;;;;;13.68;7.15;;;;;;;;;;5002006;28;20413;-78
2022/11/23 01:17:05;;;;;;;11.52;6.68;;;;;;;;;;4975560;28;20786;-79
2022/11/23 01:19:33;;;;;;;10.60;6.50;;;;;;;;;;4989573;28;20031;-77
2022/11/23 01:22:00;;;;;;;11.65;7.00;;;;;;;;;;4987512;28;20051;-80
2022/11/23 01:24:26;;;;;;;10.80;6.57;;;;;;;;;;4982030;28;20030;-79
2022/11/23 01:26:53;;;;;;;12.85;6.65;;;;;;;;;;4988963;28;20040;-79
2022/11/23 01:29:20;;;;;;;10.68;6.22;;;;;;;;;;4983827;28;20109;-79
2022/11/23 01:31:45;;;;;;;17.90;6.90;;;;;;;;;;5001320;28;20037;-80
2022/11/23 01:34:14;;;;;;;10.13;6.32;;;;;;;;;;4983564;28;20466;-79
2022/11/23 01:36:40;;;;;;;10.25;6.28;;;;;;;;;;4987855;28;20034;-79
2022/11/23 01:39:06;;;;;;;12.85;6.20;;;;;;;;;;4977259;28;20038;-78
2022/11/23 01:41:38;;;;;;;11.55;5.63;;;;;;;;;;4987281;28;20061;-79
2022/11/23 01:44:25;;;;;;;10.77;5.35;;;;;;;;;;4987732;28;20458;-76
2022/11/23 01:47:00;;;;;;;9.15;6.00;;;;;;;;;;4986850;28;20778;-79
2022/11/23 01:49:32;;;;;;;10.53;5.37;;;;;;;;;;4996125;28;20038;-78
2022/11/23 01:52:04;;;;;;;7.68;5.50;;;;;;;;;;4988898;28;20084;-79
2022/11/23 01:54:35;;;;;;;6.07;4.75;;;;;;;;;;5003523;28;20041;-78
2022/11/23 01:57:10;;;;;;;7.43;4.68;;;;;;;;;;4986846;28;20484;-78
2022/11/23 01:59:37;;;;;;;6.95;4.88;;;;;;;;;;4985513;28;20611;-78
2022/11/23 02:02:05;;;;;;;10.20;6.15;;;;;;;;;;4990129;28;20038;-79
2022/11/23 02:04:39;;;;;;;9.77;6.18;;;;;;;;;;5002235;28;20125;-79
2022/11/23 02:07:05;;;;;;;8.30;5.07;;;;;;;;;;4970457;28;20046;-78
2022/11/23 02:09:32;;;;;;;10.23;5.65;;;;;;;;;;4977839;28;20504;-78
2022/11/23 02:12:00;;;;;;;9.48;5.35;;;;;;;;;;4983867;28;20603;-78
2022/11/23 02:14:26;;;;;;;9.07;5.53;;;;;;;;;;4991377;28;20097;-78
2022/11/23 02:16:57;;;;;;;7.57;5.20;;;;;;;;;;4987738;28;20125;-78
2022/11/23 02:19:39;;;;;;;11.63;5.97;;;;;;;;;;4984802;28;20174;-79
2022/11/23 02:22:15;;;;;;;8.23;5.68;;;;;;;;;;4985637;28;20079;-78
2022/11/23 02:24:49;;;;;;;10.43;6.07;;;;;;;;;;4986757;28;20485;-78
2022/11/23 02:27:16;;;;;;;8.23;5.60;;;;;;;;;;4981910;28;20041;-76
2022/11/23 02:29:43;;;;;;;11.88;6.50;;;;;;;;;;4979265;28;20034;-78
2022/11/23 02:32:09;;;;;;;9.98;5.68;;;;;;;;;;4987068;28;20038;-78
2022/11/23 02:34:39;;;;;;;11.63;5.90;;;;;;;;;;4986438;28;20085;-77
2022/11/23 02:37:05;;;;;;;10.73;5.90;;;;;;;;;;4988447;28;20117;-78
2022/11/23 02:39:39;;;;;;;9.38;6.13;;;;;;;;;;4958371;28;20160;-79
2022/11/23 02:42:05;;;;;;;12.60;6.85;;;;;;;;;;4991109;28;20067;-78
2022/11/23 02:44:40;;;;;;;9.63;6.18;;;;;;;;;;4974137;28;20033;-78
2022/11/23 02:47:08;;;;;;;10.10;5.93;;;;;;;;;;4988708;28;20496;-78
2022/11/23 02:49:34;;;;;;;10.70;6.13;;;;;;;;;;5000420;28;20115;-78
2022/11/23 02:52:00;;;;;;;14.68;6.93;;;;;;;;;;4963288;28;20067;-78
2022/11/23 02:54:27;;;;;;;16.08;7.95;;;;;;;;;;4967002;28;20026;-77
2022/11/23 02:56:54;;;;;;;12.38;7.18;;;;;;;;;;4982456;28;20030;-78
2022/11/23 02:59:21;;;;;;;11.95;7.05;;;;;;;;;;4970732;28;20026;-78
2022/11/23 03:01:49;;;;;;;11.90;6.65;;;;;;;;;;4984048;28;20127;-79
2022/11/23 03:04:15;;;;;;;14.27;7.28;;;;;;;;;;4989378;28;20134;-79
2022/11/23 03:06:41;;;;;;;10.57;6.47;;;;;;;;;;4982372;28;20114;-79
2022/11/23 03:09:08;;;;;;;10.68;6.85;;;;;;;;;;4986742;28;20029;-78
2022/11/23 03:11:34;;;;;;;9.75;6.22;;;;;;;;;;4986764;28;20039;-77
2022/11/23 03:14:02;;;;;;;20.08;7.65;;;;;;;;;;4971409;28;20022;-78
2022/11/23 03:16:32;;;;;;;11.32;6.68;;;;;;;;;;4984391;28;20397;-79
2022/11/23 03:19:00;;;;;;;9.82;6.30;;;;;;;;;;4983003;28;20035;-78
2022/11/23 03:21:27;;;;;;;9.77;4.97;;;;;;;;;;4987802;28;20584;-78
2022/11/23 03:23:55;;;;;;;9.98;5.38;;;;;;;;;;4990119;28;20125;-78
2022/11/23 03:26:22;;;;;;;7.65;5.30;;;;;;;;;;4988687;28;20472;-78
2022/11/23 03:29:00;;;;;;;9.68;5.50;;;;;;;;;;4982881;28;20049;-79
2022/11/23 03:31:28;;;;;;;11.20;5.57;;;;;;;;;;4981776;28;20096;-80
2022/11/23 03:33:54;;;;;;;8.70;5.20;;;;;;;;;;4987607;28;20039;-79
2022/11/23 03:36:21;;;;;;;8.43;5.25;;;;;;;;;;4983439;28;20038;-78
2022/11/23 03:38:47;;;;;;;9.27;4.97;;;;;;;;;;4998250;28;20018;-78
2022/11/23 03:41:36;;;;;;;8.00;4.85;;;;;;;;;;4982279;28;20058;-79
2022/11/23 03:44:10;;;;;;;;;;;;;;;;;;4991578;28;20041;-79
2022/11/23 03:46:36;;;;;;;9.40;5.28;;;;;;;;;;4986780;28;19937;-79
2022/11/23 03:49:02;;;;;;;10.48;5.57;;;;;;;;;;4980089;28;20030;-78
2022/11/23 03:51:29;;;;;;;9.93;5.50;;;;;;;;;;5001026;28;20066;-79
2022/11/23 03:53:55;;;;;;;10.13;5.30;;;;;;;;;;4988305;28;20022;-78
2022/11/23 03:56:22;;;;;;;8.82;4.85;;;;;;;;;;4986377;28;20131;-79
2022/11/23 03:58:48;;;;;;;10.65;5.68;;;;;;;;;;4985813;28;20049;-79
2022/11/23 04:01:14;;;;;;;8.32;5.50;;;;;;;;;;4983463;28;20038;-78
2022/11/23 04:03:43;;;;;;;7.70;5.18;;;;;;;;;;4978909;28;20034;-79
2022/11/23 04:06:16;;;;;;;9.85;5.53;;;;;;;;;;4990212;28;20035;-80
2022/11/23 04:08:56;;;;;;;9.73;6.10;;;;;;;;;;4988657;28;20464;-78
2022/11/23 04:11:36;;;;;;;10.90;5.88;;;;;;;;;;4961194;28;20033;-79
2022/11/23 04:14:07;;;;;;;10.43;5.95;;;;;;;;;;4988039;28;20093;-80
2022/11/23 04:16:34;;;;;;;10.45;5.57;;;;;;;;;;4988402;28;20030;-78
2022/11/23 04:19:01;;;;;;;11.77;6.45;;;;;;;;;;4977270;28;20030;-79
2022/11/23 04:21:28;;;;;;;8.32;5.78;;;;;;;;;;4976053;28;20050;-78
2022/11/23 04:23:54;;;;;;;9.52;6.63;;;;;;;;;;4974590;28;20117;-79
2022/11/23 04:26:20;;;;;;;9.40;6.80;;;;;;;;;;4987157;28;20034;-79
2022/11/23 04:28:46;;;;;;;12.52;7.35;;;;;;;;;;4983557;28;20042;-79
2022/11/23 04:31:12;;;;;;;11.52;7.30;;;;;;;;;;4988239;28;20189;-79
2022/11/23 04:34:00;;;;;;;12.00;7.63;;;;;;;;;;4961642;28;20061;-78
2022/11/23 04:36:26;;;;;;;9.45;6.50;;;;;;;;;;4992098;28;20057;-78
2022/11/23 04:38:54;;;;;;;12.43;7.13;;;;;;;;;;4983685;28;20027;-78
2022/11/23 04:41:29;;;;;;;10.50;7.32;;;;;;;;;;4978761;28;20133;-78
2022/11/23 04:43:56;;;;;;;12.43;7.85;;;;;;;;;;4994065;28;20393;-78
2022/11/23 04:46:23;;;;;;;12.98;8.15;;;;;;;;;;4977050;28;20084;-80
2022/11/23 04:48:49;;;;;;;14.80;9.02;;;;;;;;;;4994984;28;20407;-79
2022/11/23 04:51:18;;;;;;;15.80;8.90;;;;;;;;;;4993588;28;20519;-78
2022/11/23 04:53:45;;;;;;;14.18;7.90;;;;;;;;;;4994336;28;20039;-78
2022/11/23 04:56:12;;;;;;;11.77;8.80;;;;;;;;;;4994110;28;20477;-79
2022/11/23 04:58:40;;;;;;;11.98;7.63;;;;;;;;;;4994408;28;20558;-77
2022/11/23 05:01:07;;;;;;;12.93;7.43;;;;;;;;;;4993759;28;20018;-78
2022/11/23 05:03:46;;;;;;;13.50;8.70;;;;;;;;;;4950261;28;20192;-78
2022/11/23 05:06:12;;;;;;;12.18;8.52;;;;;;;;;;5010798;28;20117;-78
2022/11/23 05:08:42;;;;;;;11.95;8.25;;;;;;;;;;4974960;28;20488;-77
2022/11/23 05:11:28;;;;;;;15.32;9.23;;;;;;;;;;4980079;28;20046;-79
2022/11/23 05:13:57;;;;;;;16.73;9.88;;;;;;;;;;4993676;28;20511;-78
2022/11/23 05:16:23;;;;;;;15.65;9.65;;;;;;;;;;4991911;28;20072;-79
2022/11/23 05:18:52;;;;;;;14.50;10.02;;;;;;;;;;4976407;28;20062;-79
2022/11/23 05:21:17;;;;;;;15.98;10.10;;;;;;;;;;4994640;28;20112;-79
2022/11/23 05:23:43;;;;;;;15.20;9.25;;;;;;;;;;4977052;28;20066;-79
2022/11/23 05:26:09;;;;;;;18.23;12.27;;;;;;;;;;4976559;28;20050;-79
2022/11/23 05:28:37;;;;;;;15.73;9.55;;;;;;;;;;4993260;28;20125;-80
2022/11/23 05:31:03;;;;;;;16.08;9.77;;;;;;;;;;4993507;28;20023;-80
2022/11/23 05:33:30;;;;;;;14.35;8.88;;;;;;;;;;4990737;28;20070;-77
2022/11/23 05:35:56;;;;;;;14.88;8.35;;;;;;;;;;4990659;28;20062;-78
2022/11/23 05:38:32;;;;;;;13.05;7.95;;;;;;;;;;4989101;28;20053;-79
2022/11/23 05:41:01;;;;;;;18.63;10.43;;;;;;;;;;4991599;28;20067;-77
2022/11/23 05:43:27;;;;;;;13.35;8.98;;;;;;;;;;4988572;28;20436;-77
2022/11/23 05:45:53;;;;;;;14.80;9.18;;;;;;;;;;4992932;28;20062;-78
2022/11/23 05:48:20;;;;;;;12.98;8.80;;;;;;;;;;4991430;28;20036;-77
2022/11/23 05:50:56;;;;;;;18.13;12.10;;;;;;;;;;4975195;28;20045;-78
2022/11/23 05:53:33;;;;;;;19.95;11.98;;;;;;;;;;4980622;28;20125;-78
2022/11/23 05:56:08;;;;;;;17.60;11.60;;;;;;;;;;4991469;28;20584;-78
2022/11/23 05:58:43;;;;;;;17.48;10.02;;;;;;;;;;4989833;28;20073;-76
2022/11/23 06:01:10;;;;;;;17.80;10.48;;;;;;;;;;4981322;28;20027;-77
2022/11/23 06:03:38;;;;;;;15.27;10.43;;;;;;;;;;4973411;28;20510;-78
2022/11/23 06:06:05;;;;;;;14.23;10.10;;;;;;;;;;4974706;28;20034;-79
2022/11/23 06:08:37;;;;;;;15.90;10.00;;;;;;;;;;4962739;28;20094;-79
2022/11/23 06:11:05;;;;;;;15.85;10.88;;;;;;;;;;4989213;28;20042;-78
2022/11/23 06:13:32;;;;;;;19.35;10.80;;;;;;;;;;4994158;28;20030;-79
2022/11/23 06:15:58;;;;;;;22.73;13.93;;;;;;;;;;4996176;28;20065;-78
2022/11/23 06:18:31;;;;;;;22.33;13.57;;;;;;;;;;4992911;28;20022;-78
2022/11/23 06:21:00;;;;;;;19.30;12.05;;;;;;;;;;5011682;28;20089;-78
2022/11/23 06:23:27;;;;;;;18.98;11.73;;;;;;;;;;4992323;28;20082;-79
2022/11/23 06:25:58;;;;;;;22.92;13.43;;;;;;;;;;4993370;28;20112;-78
2022/11/23 06:28:26;;;;;;;20.95;12.48;;;;;;;;;;5012875;28;20048;-78
2022/11/23 06:30:54;;;;;;;19.70;12.02;;;;;;;;;;4978982;28;20133;-78
2022/11/23 06:33:21;;;;;;;21.90;13.25;;;;;;;;;;4997355;28;20067;-79
2022/11/23 06:35:53;;;;;;;20.77;11.95;;;;;;;;;;5004301;28;20030;-78
2022/11/23 06:38:20;;;;;;;20.38;12.18;;;;;;;;;;4995000;28;20085;-80
2022/11/23 06:40:49;;;;;;;19.65;11.50;;;;;;;;;;4979798;28;20392;-79
2022/11/23 06:43:16;;;;;;;18.70;11.68;;;;;;;;;;4993364;28;20119;-79
2022/11/23 06:45:43;;;;;;;22.05;13.02;;;;;;;;;;4996837;28;20080;-79
2022/11/23 06:48:13;;;;;;;26.10;14.98;;;;;;;;;;4998199;28;20130;-79
2022/11/23 06:50:44;;;;;;;19.67;13.77;;;;;;;;;;4982245;28;20081;-79
2022/11/23 06:53:12;;;;;;;20.08;13.05;;;;;;;;;;4998690;28;20042;-80
2022/11/23 06:55:57;;;;;;;20.20;13.98;;;;;;;;;;4985156;28;20113;-78
2022/11/23 06:58:23;;;;;;;25.60;14.35;;;;;;;;;;4998180;28;20577;-78
2022/11/23 07:00:49;;;;;;;24.20;15.35;;;;;;;;;;4995836;28;20022;-79
2022/11/23 07:03:23;;;;;;;18.95;12.82;;;;;;;;;;4996300;28;20035;-78
2022/11/23 07:06:08;;;;;;;24.38;13.23;;;;;;;;;;4996460;28;20035;-79
2022/11/23 07:08:38;;;;;;;22.40;12.40;;;;;;;;;;4996104;28;20057;-78
2022/11/23 07:11:20;;;;;;;22.80;12.63;;;;;;;;;;4997115;28;20404;-80
2022/11/23 07:13:46;;;;;;;23.15;13.23;;;;;;;;;;4996331;28;20440;-79
2022/11/23 07:16:12;;;;;;;26.67;14.27;;;;;;;;;;4995581;28;20086;-80
2022/11/23 07:18:38;;;;;;;23.83;14.75;;;;;;;;;;4993917;28;20034;-80
2022/11/23 07:21:07;;;;;;;28.23;16.00;;;;;;;;;;4992246;28;20033;-79
2022/11/23 07:23:39;;;;;;;23.92;15.60;;;;;;;;;;4993384;28;20042;-79
2022/11/23 07:26:07;;;;;;;20.38;14.05;;;;;;;;;;4994567;28;20030;-78
2022/11/23 07:28:33;;;;;;;17.58;12.50;;;;;;;;;;4993389;28;20125;-78
2022/11/23 07:30:59;;;;;;;19.35;10.77;;;;;;;;;;4991632;28;20083;-78
2022/11/23 07:33:26;;;;;;;15.98;9.90;;;;;;;;;;4975889;28;20061;-78
2022/11/23 07:35:52;;;;;;;18.83;10.38;;;;;;;;;;4978031;28;20117;-78
2022/11/23 07:38:19;;;;;;;20.77;10.93;;;;;;;;;;4992479;28;20037;-78
2022/11/23 07:40:50;;;;;;;20.17;11.43;;;;;;;;;;4992681;28;20425;-77
2022/11/23 07:43:49;;;;;;;26.00;12.15;;;;;;;;;;4985397;28;20180;-78
2022/11/23 07:46:18;;;;;;;21.08;9.82;;;;;;;;;;4994142;28;20143;-75
2022/11/23 07:48:44;;;;;;;17.92;9.45;;;;;;;;;;4994589;28;20058;-77
2022/11/23 07:51:10;;;;;;;19.17;10.52;;;;;;;;;;4995041;28;20046;-76
2022/11/23 07:53:37;;;;;;;21.83;10.45;;;;;;;;;;4997324;28;20033;-78
2022/11/23 07:56:03;;;;;;;16.88;10.02;;;;;;;;;;4998358;28;20102;-77
2022/11/23 07:58:31;;;;;;;15.63;9.30;;;;;;;;;;4996442;28;20026;-77
2022/11/23 08:00:58;;;;;;;19.98;10.27;;;;;;;;;;4997617;28;20076;-76
2022/11/23 08:03:24;;;;;;;17.42;10.57;;;;;;;;;;4996280;28;20031;-78
2022/11/23 08:05:50;;;;;;;18.98;10.30;;;;;;;;;;4996978;28;20093;-78
2022/11/23 08:08:16;;;;;;;21.52;11.52;;;;;;;;;;4978898;28;20042;-78
2022/11/23 08:10:42;;;;;;;24.40;13.30;;;;;;;;;;4996402;28;20038;-79
2022/11/23 08:13:08;;;;;;;22.33;11.77;;;;;;;;;;4998077;28;20109;-79
2022/11/23 08:15:34;;;;;;;21.27;11.15;;;;;;;;;;4994098;28;20054;-79
2022/11/23 08:18:02;;;;;;;16.08;9.13;;;;;;;;;;4997182;28;20109;-79
2022/11/23 08:20:29;;;;;;;21.50;10.63;;;;;;;;;;4996822;28;20041;-79
2022/11/23 08:22:56;;;;;;;21.60;9.52;;;;;;;;;;4995577;28;20140;-79
2022/11/23 08:25:23;;;;;;;22.75;8.63;;;;;;;;;;4997173;28;20121;-80
2022/11/23 08:28:00;;;;;;;17.67;9.75;;;;;;;;;;4996629;28;20026;-81
2022/11/23 08:30:29;;;;;;;40.58;9.50;;;;;;;;;;4996950;28;20092;-79
2022/11/23 08:32:55;;;;;;;15.00;9.65;;;;;;;;;;4996108;28;20034;-80
2022/11/23 08:35:21;;;;;;;29.00;10.45;;;;;;;;;;4997562;28;20034;-79
2022/11/23 08:37:47;;;;;;;27.60;10.90;;;;;;;;;;4998124;28;20496;-79
2022/11/23 08:40:13;;;;;;;12.40;8.82;;;;;;;;;;4997072;28;20049;-79
2022/11/23 08:42:39;;;;;;;24.85;9.90;;;;;;;;;;4996760;28;20029;-79
2022/11/23 08:45:06;;;;;;;26.88;9.75;;;;;;;;;;4997632;28;20071;-80
2022/11/23 08:47:33;;;;;;;40.15;13.00;;;;;;;;;;4998093;28;20027;-80
2022/11/23 08:49:59;;;;;;;52.75;13.85;;;;;;;;;;4998102;28;20035;-78
2022/11/23 08:52:26;;;;;;;56.72;14.77;;;;;;;;;;4997006;28;20022;-80
2022/11/23 08:54:52;;;;;;;12.73;8.45;;;;;;;;;;4998033;28;20037;-79
2022/11/23 08:57:18;;;;;;;21.08;8.82;;;;;;;;;;4994030;28;20022;-79
2022/11/23 08:59:43;;;;;;;25.60;8.35;;;;;;;;;;4996497;28;20031;-79
2022/11/23 09:02:13;;;;;;;17.63;7.93;;;;;;;;;;4995192;28;20499;-78
2022/11/23 09:04:40;;;;;;;17.45;7.80;;;;;;;;;;4997798;28;20437;-80
2022/11/23 09:07:06;;;;;;;11.05;7.43;;;;;;;;;;5001039;28;20026;-79
2022/11/23 09:09:33;;;;;;;18.88;8.82;;;;;;;;;;4995570;28;20038;-77
2022/11/23 09:11:59;;;;;;;23.75;7.85;;;;;;;;;;4994023;28;20030;-78
2022/11/23 09:14:26;;;;;;;26.85;11.27;;;;;;;;;;4994602;28;20116;-79
2022/11/23 09:16:53;;;;;;;23.75;9.13;;;;;;;;;;4995301;28;20063;-78
2022/11/23 09:19:19;;;;;;;17.63;7.88;;;;;;;;;;4993702;28;20519;-77
2022/11/23 09:21:45;;;;;;;16.60;8.07;;;;;;;;;;4995307;28;20026;-78
2022/11/23 09:24:11;;;;;;;14.75;7.90;;;;;;;;;;4993561;28;20055;-78
2022/11/23 09:26:37;;;;;;;14.25;7.63;;;;;;;;;;4994501;28;20062;-78
2022/11/23 09:29:07;;;;;;;15.48;8.13;;;;;;;;;;4994714;28;20092;-79
2022/11/23 09:31:35;;;;;;;11.60;7.47;;;;;;;;;;4995107;28;20435;-78
2022/11/23 09:34:02;;;;;;;11.23;7.38;;;;;;;;;;4994781;28;20065;-79
2022/11/23 09:36:28;;;;;;;15.07;8.00;;;;;;;;;;4995065;28;20467;-78
2022/11/23 09:38:54;;;;;;;38.10;9.60;;;;;;;;;;4994462;28;20038;-78
2022/11/23 09:41:49;;;;;;;14.85;7.40;;;;;;;;;;4993464;28;20058;-79
2022/11/23 09:44:34;;;;;;;12.43;7.45;;;;;;;;;;4995106;28;20038;-76
2022/11/23 09:47:24;;;;;;;22.88;9.50;;;;;;;;;;4994498;28;20493;-79
2022/11/23 09:50:06;;;;;;;12.27;7.20;;;;;;;;;;4993229;28;20044;-76
2022/11/23 09:52:35;;;;;;;17.17;7.40;;;;;;;;;;4994075;28;20049;-76
2022/11/23 09:55:10;;;;;;;11.40;6.03;;;;;;;;;;4991036;28;20199;-78
2022/11/23 09:57:39;;;;;;;16.85;6.72;;;;;;;;;;4993661;28;20178;-78
2022/11/23 10:00:22;;;;;;;11.80;3.92;;;;;;;;;;4997404;28;20033;-77
2022/11/23 10:02:48;;;;;;;6.72;3.15;;;;;;;;;;4995212;28;20377;-75
2022/11/23 10:05:22;;;;;;;13.65;3.28;;;;;;;;;;4993076;28;20034;-77
2022/11/23 10:08:20;;;;;;;32.80;4.43;;;;;;;;;;4994081;28;20030;-77
2022/11/23 10:11:22;;;;;;;5.18;2.10;;;;;;;;;;4993799;28;20057;-76
2022/11/23 10:14:06;;;;;;;10.13;2.35;;;;;;;;;;4994025;28;20061;-76
2022/11/23 10:16:43;;;;;;;7.82;2.25;;;;;;;;;;4994142;28;20088;-76
2022/11/23 10:19:21;;;;;;;11.20;2.70;;;;;;;;;;4993610;28;20280;-76
2022/11/23 10:22:17;;;;;;;12.85;2.78;;;;;;;;;;4994267;28;20038;-77
2022/11/23 10:24:49;;;;;;;9.57;2.30;;;;;;;;;;4992394;28;20133;-78
2022/11/23 10:27:18;;;;;;;7.07;2.15;;;;;;;;;;4992343;28;20121;-76
2022/11/23 10:29:45;;;;;;;8.98;2.83;;;;;;;;;;4992481;28;20057;-77
2022/11/23 10:32:30;;;;;;;20.67;3.85;;;;;;;;;;4993241;28;20439;-75
2022/11/23 10:35:13;;;;;;;18.10;3.05;;;;;;;;;;4993804;28;20118;-76
2022/11/23 10:37:40;;;;;;;8.48;2.33;;;;;;;;;;4993557;28;20432;-77
2022/11/23 10:40:27;;;;;;;8.07;2.25;;;;;;;;;;4993042;28;20104;-77
2022/11/23 10:42:58;;;;;;;15.25;2.58;;;;;;;;;;4992757;28;20034;-77
2022/11/23 10:45:27;;;;;;;14.23;2.70;;;;;;;;;;4993204;28;20040;-75
2022/11/23 10:48:02;;;;;;;10.30;2.90;;;;;;;;;;4993309;28;20030;-76
2022/11/23 10:50:39;;;;;;;15.23;4.00;;;;;;;;;;4992514;28;20041;-75
2022/11/23 10:53:07;;;;;;;19.55;5.00;;;;;;;;;;4991770;28;20057;-76
2022/11/23 10:55:46;;;;;;;14.73;3.88;;;;;;;;;;4991628;28;20105;-75
2022/11/23 10:58:26;;;;;;;7.25;2.78;;;;;;;;;;4991405;28;20481;-76
2022/11/23 11:01:04;;;;;;;5.35;2.15;;;;;;;;;;4992738;28;20037;-76
2022/11/23 11:03:33;;;;;;;14.32;3.15;;;;;;;;;;4992838;28;20326;-75
2022/11/23 11:06:00;;;;;;;8.23;3.08;;;;;;;;;;4992805;28;20022;-78
2022/11/23 11:08:33;;;;;;;18.92;5.55;;;;;;;;;;4993144;28;20058;-77
2022/11/23 11:11:04;;;;;;;13.30;2.95;;;;;;;;;;4993453;28;20066;-76
2022/11/23 11:13:42;;;;;;;16.00;3.05;;;;;;;;;;4993842;28;20063;-76
2022/11/23 11:16:32;;;;;;;11.45;2.80;;;;;;;;;;4993030;28;20053;-76
2022/11/23 11:18:59;;;;;;;14.70;2.90;;;;;;;;;;4993460;28;20396;-76
2022/11/23 11:21:39;;;;;;;8.93;2.42;;;;;;;;;;4992800;28;20037;-77
2022/11/23 11:24:15;;;;;;;22.08;4.35;;;;;;;;;;4993669;28;20404;-77
2022/11/23 11:27:01;;;;;;;10.80;3.00;;;;;;;;;;4992939;28;20113;-78
2022/11/23 11:29:37;;;;;;;8.82;2.95;;;;;;;;;;4992367;28;20050;-77
2022/11/23 11:32:22;;;;;;;21.67;3.25;;;;;;;;;;4994234;28;20031;-76
2022/11/23 11:35:08;;;;;;;4.68;1.60;;;;;;;;;;4994126;28;20034;-76
2022/11/23 11:38:09;;;;;;;4.82;2.03;;;;;;;;;;4994921;28;20059;-77
2022/11/23 11:40:52;;;;;;;6.07;2.20;;;;;;;;;;4990746;28;20507;-76
2022/11/23 11:43:26;;;;;;;5.78;1.73;;;;;;;;;;4989876;28;20499;-77
2022/11/23 11:45:55;;;;;;;6.88;2.03;;;;;;;;;;4991593;28;20038;-77
2022/11/23 11:48:31;;;;;;;12.25;2.67;;;;;;;;;;4987971;28;20532;-78
2022/11/23 11:51:12;;;;;;;10.70;2.47;;;;;;;;;;4990983;28;20061;-78
2022/11/23 11:54:07;;;;;;;6.53;2.20;;;;;;;;;;4990440;28;20076;-76
2022/11/23 11:56:38;;;;;;;8.57;1.92;;;;;;;;;;4974323;28;20030;-78
2022/11/23 11:59:52;;;;;;;8.43;1.90;;;;;;;;;;4990306;28;20036;-78
2022/11/23 12:02:26;;;;;;;3.92;1.20;;;;;;;;;;4974378;28;20050;-78
2022/11/23 12:05:07;;;;;;;4.55;1.30;;;;;;;;;;4990243;28;20073;-78
2022/11/23 12:07:46;;;;;;;5.55;1.98;;;;;;;;;;4990107;28;20552;-77
2022/11/23 12:10:47;;;;;;;6.40;1.52;;;;;;;;;;4972804;28;20030;-76
2022/11/23 12:13:20;;;;;;;10.85;1.30;;;;;;;;;;4919911;28;20042;-76
2022/11/23 12:16:02;;;;;;;4.15;1.20;;;;;;;;;;4984909;28;20026;-78
2022/11/23 12:18:53;;;;;;;8.05;1.60;;;;;;;;;;4998790;28;20118;-77
2022/11/23 12:21:37;;;;;;;6.78;2.17;;;;;;;;;;4992549;28;20511;-77
2022/11/23 12:24:11;;;;;;;5.18;1.42;;;;;;;;;;4992074;28;20042;-78
2022/11/23 12:26:49;;;;;;;4.95;1.42;;;;;;;;;;4992073;28;20105;-79
2022/11/23 12:29:30;;;;;;;10.63;1.90;;;;;;;;;;4993079;28;20616;-76
2022/11/23 12:32:24;;;;;;;12.63;2.10;;;;;;;;;;4993818;28;20096;-76
2022/11/23 12:35:01;;;;;;;6.15;2.15;;;;;;;;;;4993993;28;20030;-77
2022/11/23 12:37:48;;;;;;;5.30;1.70;;;;;;;;;;4994157;28;20034;-78
2022/11/23 12:40:23;;;;;;;3.55;1.30;;;;;;;;;;4994511;28;20034;-78
2022/11/23 12:42:53;;;;;;;5.22;1.48;;;;;;;;;;4994262;28;20039;-75
2022/11/23 12:45:42;;;;;;;7.35;1.50;;;;;;;;;;4992591;28;20049;-78
2022/11/23 12:48:49;;;;;;;7.47;1.85;;;;;;;;;;4993365;28;20526;-77
2022/11/23 12:51:34;;;;;;;10.15;2.70;;;;;;;;;;4991383;28;22475;-75
2022/11/23 12:54:26;;;;;;;5.25;1.40;;;;;;;;;;4975518;28;20117;-78
2022/11/23 12:57:14;;;;;;;4.47;1.20;;;;;;;;;;4972381;28;20531;-78
2022/11/23 12:59:50;;;;;;;5.75;1.20;;;;;;;;;;4975461;28;20039;-76
2022/11/23 13:02:57;;;;;;;10.07;1.95;;;;;;;;;;4975623;28;20083;-77
2022/11/23 13:05:51;;;;;;;13.75;3.25;;;;;;;;;;4911678;28;20034;-77
2022/11/23 13:08:28;;;;;;;;;;;;;;;;;;4974808;28;20444;-77
2022/11/23 13:11:25;;;;;;;13.40;4.00;;;;;;;;;;4975057;28;19921;-77
2022/11/23 13:13:58;;;;;;;8.90;2.80;;;;;;;;;;4974095;28;20042;-78
2022/11/23 13:16:53;;;;;;;7.45;2.50;;;;;;;;;;4973078;28;20031;-76
2022/11/23 13:19:40;;;;;;;9.65;3.17;;;;;;;;;;4974656;28;20026;-77
2022/11/23 13:22:11;;;;;;;7.40;2.97;;;;;;;;;;4971828;28;20038;-77
2022/11/23 13:24:56;;;;;;;9.35;3.33;;;;;;;;;;4974256;28;20458;-78
2022/11/23 13:27:26;;;;;;;8.23;2.50;;;;;;;;;;4974109;28;20097;-77
2022/11/23 13:29:52;;;;;;;13.00;3.85;;;;;;;;;;4989070;28;20134;-78
2022/11/23 13:32:41;;;;;;;9.18;2.90;;;;;;;;;;4962573;28;20114;-77
2022/11/23 13:35:16;;;;;;;11.38;3.17;;;;;;;;;;4965108;28;20035;-78
2022/11/23 13:38:00;;;;;;;7.97;2.60;;;;;;;;;;4974761;28;20031;-78
2022/11/23 13:40:34;;;;;;;18.85;3.13;;;;;;;;;;4972590;28;20023;-77
2022/11/23 13:43:28;;;;;;;8.20;2.22;;;;;;;;;;4973117;28;20114;-77
2022/11/23 13:46:28;;;;;;;11.07;2.70;;;;;;;;;;4973302;28;20042;-76
2022/11/23 13:48:58;;;;;;;6.03;1.80;;;;;;;;;;4974045;28;20041;-75
2022/11/23 13:51:33;;;;;;;5.30;1.85;;;;;;;;;;4974522;28;20089;-76
2022/11/23 13:54:20;;;;;;;8.85;2.47;;;;;;;;;;4974890;28;20026;-78
2022/11/23 13:56:57;;;;;;;5.78;2.25;;;;;;;;;;4974246;28;20039;-77
2022/11/23 13:59:23;;;;;;;11.68;2.30;;;;;;;;;;4974782;28;20122;-76
2022/11/23 14:02:25;;;;;;;6.97;2.05;;;;;;;;;;4973930;28;20386;-76
2022/11/23 14:04:51;;;;;;;8.00;1.98;;;;;;;;;;4975211;28;20116;-78
2022/11/23 14:07:34;;;;;;;9.65;2.20;;;;;;;;;;4973027;28;20050;-77
2022/11/23 14:10:23;;;;;;;8.63;3.05;;;;;;;;;;4970583;28;20053;-75
2022/11/23 14:13:24;;;;;;;8.13;1.83;;;;;;;;;;4974200;28;20030;-75
2022/11/23 14:16:03;;;;;;;8.10;2.25;;;;;;;;;;4942057;28;20045;-77
2022/11/23 14:18:38;;;;;;;9.77;3.65;;;;;;;;;;4974452;28;20062;-76
2022/11/23 14:21:10;;;;;;;10.27;2.67;;;;;;;;;;4965452;28;20039;-77
2022/11/23 14:23:42;;;;;;;5.20;2.30;;;;;;;;;;4964769;28;20058;-77
2022/11/23 14:26:20;;;;;;;6.65;2.33;;;;;;;;;;4963487;28;20030;-77
2022/11/23 14:29:17;;;;;;;10.10;2.70;;;;;;;;;;4955623;28;20035;-76
2022/11/23 14:32:25;;;;;;;9.35;2.15;;;;;;;;;;4966689;28;20039;-78
2022/11/23 14:35:19;;;;;;;5.22;1.80;;;;;;;;;;4958731;28;20069;-78
2022/11/23 14:38:17;;;;;;;5.57;2.20;;;;;;;;;;4990893;28;20121;-78
2022/11/23 14:40:56;;;;;;;6.82;2.78;;;;;;;;;;4957163;28;20059;-80
2022/11/23 14:43:25;;;;;;;6.78;2.47;;;;;;;;;;4965142;28;20034;-77
2022/11/23 14:45:51;;;;;;;5.72;2.03;;;;;;;;;;4969242;28;20023;-77
2022/11/23 14:48:27;;;;;;;5.07;2.00;;;;;;;;;;4967221;28;20034;-77
2022/11/23 14:50:58;;;;;;;9.88;2.53;;;;;;;;;;4971736;28;20109;-77
2022/11/23 14:53:33;;;;;;;5.22;2.70;;;;;;;;;;4970876;28;20511;-75
2022/11/23 14:56:00;;;;;;;4.55;2.10;;;;;;;;;;4969500;28;20026;-74
2022/11/23 14:58:29;;;;;;;5.82;2.38;;;;;;;;;;4970261;28;20026;-75
2022/11/23 15:01:00;;;;;;;9.32;2.72;;;;;;;;;;4970663;28;20125;-74
2022/11/23 15:03:29;;;;;;;7.50;3.40;;;;;;;;;;4971225;28;20496;-77